My Meet Scores
Kaitlyn Nolan, Flipstar Gymnastics Academy - MyMeetScores.com
Top100 | Top Teams | Upcoming Meets | Completed Meets | Latest | Add Scores | Help| Support | Bookmark and Share

Kaitlyn Nolan, Flipstar Gymnastics Academy
Personal Bests
LevelVault BarsBeamFloorAA
49.5509.400 9.5759.27537.175
58.6259.550 9.7259.07536.400
68.4008.775 8.8008.35034.200
Meet Scores
Date Meet Team Session Level Division Vault Bars Beam Floor AA
2014-03-28 2014 Illinois Level 6, 7 State Flipstar Gymnastics Academy 6 6 JrC 8.400 35 8.650 22 8.800 31 8.350 35 34.200 35
2014-02-15 BIG Dream Classic 2014 Flipstar Gymnastics Academy 5B 6 Junior B 8.300 19 8.550 16 8.350 20 8.100 20 33.300 20
2014-01-24 Sand Dollar/ Whitlow Invitational Flipstar Gymnastics Academy C04 6 Jr B 7.500 10 8.500 6 8.750 8 7.500 10 32.250 10
2013-04-26 2013 Illinois Level 5 and Xcel State Meet Olympia Gymnastics Center 5 Jr.C 8.425 28 9.550 3 8.775 22 8.950 26 35.700 19
2013-03-08 Arena Classic 2013 Olympia Gymnastics Center 2 5 10 8.625 7 9.250 1 9.450 1 9.075 5 36.400 2
2013-02-22 Midwest Open 2013 Olympia Gymnastics Center 1A 6 8 to 10 8.350 14 8.775 10 8.300 13 8.000 13 33.425 14
2013-02-15 Midwest Twisters HarleyDavidson Invite Olympia Gymnastics Center 9OR 5 10 yrs. 8.100 15T 9.200 3 9.725 1 8.575 11 35.600 4
2013-01-12 St. Jude Benefit Meet Olympia Gymnastics Center GymA 5 10 8.050 57 9.400 11 8.850 28 8.900 42 35.200 32
2012-11-30 Ultimate Wish Classic 2012 Gym Kinetics Gymnastics 5 L5 Sr A S11 0.000 15 9.250 3 9.650 1 8.175 14 27.075 15
2012-11-09 2012 Illinois Judges Cup Gym Kinetics Gymnastics 1B 5 10 8.400 9 8.750 3 8.550 7 8.600 9 34.300 4
2012-03-30 2012 Illinois Level 5 State Meet Gym Kinetics Gymnastics 3 5 YouthB 8.250 32 8.950 14 9.400 6 8.400 26 35.000 21
2012-02-25 Midwest Open 2012 Flipstar Gymnastics Academy 3A 5 Lvl 5: 9 8.400 17 9.050 11 9.425 4 9.000 20 35.875 15
2012-02-10 IGI Chicago Style Gymnastics Gym Kinetics Gymnastics 622 5 9 & Under 7.900 25T 9.100 10T 7.500 29 8.600 23T 33.100 26
2012-01-28 2012 King Arthur Invitational Gym Kinetics Gymnastics 5 5 Jr.C 8.450 12 8.625 9 9.050 6 8.200 16 34.325 12
2012-01-06 2012 St. Jude Invite Flipstar Gymnastics Academy 2A 5 ChildB 7.550 20 8.900 7 8.650 13 8.600 12 33.700 13
2011-12-15 2011 Hawaiian Pineapple Classic Flipstar Gymnastics Academy 5B 5 9 7.900 9 9.425 1 9.000 6T 8.500 9 34.825 4
2011-11-18 2011 Thanksgiving Classic Gym Kinetics Gymnastics 5 5 7-9 7.925 32 9.150 4T 8.750 19T 8.350 23 34.175 14
2011-03-18 2011 Illinois Level 4 State Meet Gym Kinetics Gymnastics 7 4 Youth.C 9.550 4 8.800 14 9.575 2 9.250 5 37.175 6
2011-03-04 Elgin Invite Flipstar Gymnastics Academy 8 4 8 8.825 34 9.375 2 8.950 14 9.250 6 36.400 12
2011-02-19 Big Dream Classic Gym Kinetics Gymnastics 3B 4 8 yrs 8.925 16T 9.250 5 9.300 7T 8.875 10 36.350 8T
2011-02-11 IGI Chicago Style Gymnastics Meet Gym Kinetics Gymnastics 233 4 8 & Under 8.975 39 9.325 17T 9.075 24 9.100 16T 36.475 18T
2011-01-21 Bravo Classic Flipstar Gymnastics Academy 2B 4 8 9.000 11 8.750 12 8.925 4 9.000 5 35.675 4
2011-01-08 Crossroads Classic Gym Kinetics Gymnastics 5A 4 Ch B 8.950 3T 9.200 1 8.525 2 9.275 1 35.950 1
2010-12-03 Make a Wish Gym Kinetics Gymnastics 5 4 Age 8 8.650 18 9.400 1 9.225 3 9.275 5 36.550 1
2010-03-26 2010 Illinois Level 4 State Championships Gym Kinetics Gymnastics 4 Child.C 8.850 19 8.000 27 8.800 14 8.100 27 33.750 21

www.lazysuits.com